Time;durP1;ratioP1;P1;durP2;ratioP2;P2;SDS_P1;SDS_P2;PMS_P1;PMS_P2;Temp;Humidity;BMP_temperature;BMP_pressure;BME280_temperature;BME280_humidity;BME280_pressure;Samples;Min_cycle;Max_cycle;Signal;HPM_P1;HPM_P2
2022/11/29 00:00:29;;;;;;;36.08;17.95;;;5.10;81.10;;;;;;4132632;28;20037;-89
2022/11/29 00:02:52;;;;;;;42.63;18.42;;;5.10;80.90;;;;;;4133212;28;20089;-87
2022/11/29 00:05:11;;;;;;;40.13;18.23;;;5.10;80.90;;;;;;4121014;28;20046;-89
2022/11/29 00:07:30;;;;;;;41.08;19.10;;;5.10;80.80;;;;;;4154001;28;20045;-87
2022/11/29 00:09:49;;;;;;;38.72;18.77;;;5.10;80.90;;;;;;4128990;28;20044;-88
2022/11/29 00:12:11;;;;;;;37.70;18.08;;;5.10;80.80;;;;;;4136549;28;20049;-89
2022/11/29 00:14:30;;;;;;;36.95;18.05;;;5.10;81.00;;;;;;4119285;28;20117;-88
2022/11/29 00:16:52;;;;;;;39.15;17.15;;;5.10;80.90;;;;;;4124134;28;20096;-88
2022/11/29 00:19:12;;;;;;;43.38;18.35;;;5.20;80.90;;;;;;4125390;28;20049;-88
2022/11/29 00:21:31;;;;;;;44.30;19.70;;;5.10;80.90;;;;;;4135795;28;20041;-88
2022/11/29 00:23:51;;;;;;;36.90;18.50;;;5.10;81.10;;;;;;4133138;28;20123;-88
2022/11/29 00:26:10;;;;;;;41.20;19.73;;;5.10;81.00;;;;;;4134982;28;20552;-88
2022/11/29 00:28:29;;;;;;;39.08;19.15;;;5.10;81.10;;;;;;4136946;28;20048;-87
2022/11/29 00:30:48;;;;;;;40.30;19.95;;;5.10;81.00;;;;;;4129012;28;21096;-89
2022/11/29 00:33:07;;;;;;;36.40;18.27;;;5.10;81.30;;;;;;4123055;28;20092;-89
2022/11/29 00:35:26;;;;;;;36.80;18.45;;;5.20;81.20;;;;;;4120467;28;20061;-89
2022/11/29 00:37:45;;;;;;;44.08;19.73;;;5.10;81.20;;;;;;4143326;28;20576;-87
2022/11/29 00:40:05;;;;;;;43.42;19.73;;;5.10;81.20;;;;;;4136465;28;20068;-87
2022/11/29 00:42:24;;;;;;;44.60;20.90;;;5.10;81.20;;;;;;4121499;28;20061;-89
2022/11/29 00:44:44;;;;;;;41.40;20.70;;;5.10;81.50;;;;;;4118578;28;20276;-89
2022/11/29 00:47:03;;;;;;;50.97;21.95;;;5.10;81.40;;;;;;4134874;28;20092;-88
2022/11/29 00:49:22;;;;;;;44.00;20.00;;;5.10;81.40;;;;;;4121060;28;20589;-89
2022/11/29 00:51:54;;;;;;;42.05;19.73;;;5.10;81.30;;;;;;4122523;28;20042;-89
2022/11/29 00:54:16;;;;;;;47.15;20.15;;;5.10;81.20;;;;;;4132660;28;20041;-89
2022/11/29 00:56:35;;;;;;;43.42;20.30;;;5.10;81.20;;;;;;4134042;28;20178;-91
2022/11/29 00:58:55;;;;;;;47.25;20.05;;;5.10;81.30;;;;;;4121742;28;20092;-88
2022/11/29 01:01:14;;;;;;;44.20;20.50;;;5.10;81.20;;;;;;4136729;28;20048;-89
2022/11/29 01:03:34;;;;;;;39.10;20.05;;;5.10;81.20;;;;;;4120564;28;20220;-88
2022/11/29 01:06:03;;;;;;;44.38;19.90;;;5.10;81.10;;;;;;4122335;28;20094;-88
2022/11/29 01:08:23;;;;;;;48.92;21.58;;;5.10;81.10;;;;;;4135037;28;20752;-88
2022/11/29 01:10:42;;;;;;;43.92;19.77;;;5.10;81.10;;;;;;4123228;28;20814;-88
2022/11/29 01:13:02;;;;;;;46.67;21.77;;;5.10;81.10;;;;;;4131765;28;20045;-88
2022/11/29 01:15:22;;;;;;;44.33;20.95;;;5.10;81.10;;;;;;4131196;28;20053;-87
2022/11/29 01:17:41;;;;;;;47.78;22.48;;;5.10;81.10;;;;;;4128874;28;20037;-88
2022/11/29 01:20:02;;;;;;;44.75;21.10;;;5.10;81.20;;;;;;4122919;28;20100;-88
2022/11/29 01:22:21;;;;;;;43.17;21.00;;;5.10;81.10;;;;;;4138088;28;20061;-88
2022/11/29 01:24:40;;;;;;;41.15;20.23;;;5.10;81.10;;;;;;4120117;28;20077;-89
2022/11/29 01:27:00;;;;;;;43.08;20.70;;;5.10;81.20;;;;;;4121803;28;20455;-89
2022/11/29 01:29:19;;;;;;;50.00;21.75;;;5.10;81.20;;;;;;4132335;28;20053;-88
2022/11/29 01:31:38;;;;;;;46.35;21.15;;;5.10;81.20;;;;;;4132589;28;20044;-88
2022/11/29 01:33:59;;;;;;;40.83;20.02;;;5.10;81.10;;;;;;4136235;28;20409;-88
2022/11/29 01:36:19;;;;;;;47.20;21.42;;;5.10;81.20;;;;;;4123280;28;20110;-89
2022/11/29 01:38:39;;;;;;;48.42;21.75;;;5.10;81.10;;;;;;4139910;28;20045;-89
2022/11/29 01:41:04;;;;;;;49.75;22.52;;;5.10;81.10;;;;;;4120275;28;20064;-89
2022/11/29 01:43:24;;;;;;;47.72;21.45;;;5.10;81.10;;;;;;4131360;28;20172;-87
2022/11/29 01:45:43;;;;;;;45.08;20.85;;;5.10;81.10;;;;;;4143739;28;20133;-87
2022/11/29 01:48:03;;;;;;;47.63;21.52;;;5.10;81.10;;;;;;4123686;28;20037;-89
2022/11/29 01:50:22;;;;;;;50.03;21.90;;;5.10;81.10;;;;;;4137617;28;20045;-87
2022/11/29 01:52:41;;;;;;;47.53;21.05;;;5.10;81.10;;;;;;4123343;28;20033;-88
2022/11/29 01:55:04;;;;;;;40.75;19.27;;;5.10;81.20;;;;;;4136187;28;20521;-87
2022/11/29 01:57:24;;;;;;;47.13;20.70;;;5.10;81.10;;;;;;4140135;28;20049;-89
2022/11/29 01:59:47;;;;;;;50.13;22.13;;;5.10;81.10;;;;;;4135032;28;20049;-86
2022/11/29 02:02:19;;;;;;;45.58;21.92;;;5.10;81.20;;;;;;4137181;28;20107;-87
2022/11/29 02:04:41;;;;;;;44.65;20.27;;;5.10;81.20;;;;;;4124150;28;20176;-87
2022/11/29 02:07:01;;;;;;;45.47;21.77;;;5.10;81.10;;;;;;4140598;28;20111;-88
2022/11/29 02:09:22;;;;;;;40.00;20.75;;;5.10;81.20;;;;;;4138552;28;20088;-87
2022/11/29 02:12:19;;;;;;;40.65;20.38;;;5.10;81.20;;;;;;4140830;28;20683;-89
2022/11/29 02:15:12;;;;;;;46.72;21.05;;;5.10;81.20;;;;;;4127031;28;20113;-88
2022/11/29 02:17:58;;;;;;;44.80;20.95;;;5.10;81.30;;;;;;4121553;28;20093;-88
2022/11/29 02:20:46;;;;;;;44.15;20.27;;;5.10;81.20;;;;;;4120372;28;20048;-87
2022/11/29 02:23:23;;;;;;;48.67;21.10;;;5.10;81.30;;;;;;4135706;28;20040;-89
2022/11/29 02:25:48;;;;;;;49.42;21.25;;;5.10;81.20;;;;;;4123336;28;20057;-88
2022/11/29 02:28:36;;;;;;;47.65;21.73;;;5.10;81.20;;;;;;4134373;28;20201;-87
2022/11/29 02:31:24;;;;;;;47.22;23.73;;;5.10;81.30;;;;;;4090540;28;20868;-88
2022/11/29 02:33:59;;;;;;;45.60;21.05;;;5.10;81.40;;;;;;4120674;28;20048;-88
2022/11/29 02:36:34;;;;;;;49.72;22.60;;;5.10;81.20;;;;;;4131209;28;20052;-88
2022/11/29 02:39:18;;;;;;;47.53;22.60;;;5.10;81.30;;;;;;4122037;28;20037;-88
2022/11/29 02:42:07;;;;;;;45.25;20.40;;;5.00;81.20;;;;;;4133834;28;20073;-87
2022/11/29 02:44:32;;;;;;;44.63;20.88;;;5.10;81.30;;;;;;4125082;28;20579;-88
2022/11/29 02:47:13;;;;;;;43.70;22.08;;;5.10;81.20;;;;;;4133691;28;20108;-88
2022/11/29 02:50:10;;;;;;;43.63;21.23;;;5.00;81.30;;;;;;4134073;28;20045;-88
2022/11/29 02:52:56;;;;;;;55.92;24.50;;;5.00;81.20;;;;;;4129015;28;20100;-87
2022/11/29 02:55:26;;;;;;;52.30;24.20;;;5.00;81.40;;;;;;4053422;29;20138;-88
2022/11/29 02:58:16;;;;;;;50.35;22.02;;;5.00;81.60;;;;;;4060179;29;20047;-89
2022/11/29 03:00:45;;;;;;;47.85;21.88;;;5.00;81.50;;;;;;4065900;29;20047;-88
2022/11/29 03:03:10;;;;;;;48.33;23.55;;;5.00;81.60;;;;;;4070778;29;21354;-88
2022/11/29 03:05:52;;;;;;;54.53;22.73;;;5.00;81.60;;;;;;4054001;29;20031;-87
2022/11/29 03:08:30;;;;;;;56.25;24.27;;;4.90;81.50;;;;;;4065573;29;20099;-87
2022/11/29 03:11:22;;;;;;;44.85;22.23;;;4.90;81.80;;;;;;4063030;29;20804;-86
2022/11/29 03:14:04;;;;;;;51.83;22.80;;;4.90;81.70;;;;;;4049536;29;20055;-88
2022/11/29 03:16:42;;;;;;;49.33;23.15;;;4.90;81.70;;;;;;4070109;29;20066;-87
2022/11/29 03:19:47;;;;;;;48.95;22.40;;;4.90;81.70;;;;;;4070444;29;20038;-89
2022/11/29 03:22:17;;;;;;;43.78;21.30;;;5.00;81.60;;;;;;4052353;29;20619;-88
2022/11/29 03:24:51;;;;;;;44.20;21.08;;;5.00;81.60;;;;;;4065768;29;20047;-88
2022/11/29 03:27:20;;;;;;;50.38;23.08;;;5.00;81.60;;;;;;4084460;28;20117;-87
2022/11/29 03:30:02;;;;;;;45.58;20.92;;;5.00;81.60;;;;;;4059686;29;20848;-88
2022/11/29 03:32:44;;;;;;;47.33;20.75;;;5.00;81.60;;;;;;4100909;28;20041;-88
2022/11/29 03:35:12;;;;;;;44.53;21.13;;;5.00;81.50;;;;;;4137208;28;20161;-87
2022/11/29 03:38:05;;;;;;;49.97;22.25;;;5.00;81.50;;;;;;4134208;28;20110;-88
2022/11/29 03:40:37;;;;;;;54.92;22.90;;;5.00;81.50;;;;;;4126857;28;20049;-87
2022/11/29 03:43:02;;;;;;;55.90;26.55;;;5.10;81.50;;;;;;4125029;28;20041;-87
2022/11/29 03:45:43;;;;;;;53.90;24.67;;;5.00;81.50;;;;;;4122202;28;20617;-87
2022/11/29 03:48:28;;;;;;;59.90;26.92;;;5.00;81.60;;;;;;4120599;28;20033;-87
2022/11/29 03:50:58;;;;;;;56.80;25.95;;;5.00;81.60;;;;;;4136712;28;20076;-88
2022/11/29 03:53:46;;;;;;;53.13;26.17;;;5.00;81.60;;;;;;4137542;28;20516;-86
2022/11/29 03:56:27;;;;;;;57.65;27.58;;;4.90;81.60;;;;;;4138471;28;20037;-88
2022/11/29 03:59:08;;;;;;;65.70;28.98;;;4.90;81.70;;;;;;4138731;28;20110;-88
2022/11/29 04:01:36;;;;;;;58.40;26.30;;;4.90;81.80;;;;;;4137713;28;20108;-87
2022/11/29 04:04:10;;;;;;;63.20;27.33;;;4.80;81.80;;;;;;4125216;28;20105;-87
2022/11/29 04:06:43;;;;;;;58.78;27.58;;;4.80;81.80;;;;;;4138551;28;20096;-87
2022/11/29 04:09:17;;;;;;;60.17;26.67;;;4.80;81.90;;;;;;4140789;28;20044;-87
2022/11/29 04:12:08;;;;;;;60.70;28.90;;;4.80;81.90;;;;;;4133656;28;20048;-88
2022/11/29 04:14:39;;;;;;;67.90;28.23;;;4.80;82.00;;;;;;4139325;28;20731;-88
2022/11/29 04:17:23;;;;;;;59.22;27.80;;;4.80;82.00;;;;;;4134210;28;20040;-89
2022/11/29 04:20:20;;;;;;;57.10;29.27;;;4.80;82.10;;;;;;4132912;28;20530;-88
2022/11/29 04:23:22;;;;;;;60.88;27.52;;;4.80;82.20;;;;;;4134761;28;20165;-87
2022/11/29 04:26:15;;;;;;;58.47;29.23;;;4.80;82.20;;;;;;4121476;28;20141;-88
2022/11/29 04:28:56;;;;;;;58.60;28.25;;;4.80;82.30;;;;;;4131841;28;20053;-88
2022/11/29 04:31:27;;;;;;;62.13;30.33;;;4.70;82.30;;;;;;4131747;28;20117;-89
2022/11/29 04:34:01;;;;;;;62.55;28.98;;;4.60;82.50;;;;;;4118346;28;20061;-87
2022/11/29 04:36:23;;;;;;;69.15;32.22;;;4.60;82.50;;;;;;4138903;28;20076;-88
2022/11/29 04:38:52;;;;;;;67.60;30.42;;;4.60;82.70;;;;;;4145010;28;20632;-88
2022/11/29 04:41:36;;;;;;;68.55;31.30;;;4.60;82.80;;;;;;4142977;28;20394;-87
2022/11/29 04:44:18;;;;;;;72.22;32.65;;;4.60;82.90;;;;;;4121976;28;20139;-88
2022/11/29 04:47:02;;;;;;;68.05;31.60;;;4.60;83.20;;;;;;4141220;28;20588;-87
2022/11/29 04:49:54;;;;;;;65.85;31.00;;;4.50;83.40;;;;;;4138293;28;20073;-88
2022/11/29 04:52:19;;;;;;;70.90;32.63;;;4.50;83.40;;;;;;4140333;28;20045;-90
2022/11/29 04:55:12;;;;;;;80.88;31.83;;;4.50;83.50;;;;;;4135624;28;20044;-88
2022/11/29 04:57:49;;;;;;;68.70;31.00;;;4.40;83.60;;;;;;4116967;28;20092;-88
2022/11/29 05:00:12;;;;;;;67.72;32.33;;;4.50;83.70;;;;;;4119503;28;22105;-87
2022/11/29 05:02:49;;;;;;;66.53;30.75;;;4.50;83.60;;;;;;4135959;28;20084;-88
2022/11/29 05:05:33;;;;;;;67.65;32.33;;;4.50;83.60;;;;;;4139934;28;20049;-88
2022/11/29 05:08:11;;;;;;;60.30;28.65;;;4.50;83.70;;;;;;4134952;28;20053;-88
2022/11/29 05:11:09;;;;;;;63.78;30.00;;;4.50;83.60;;;;;;4154231;28;20065;-88
2022/11/29 05:13:57;;;;;;;60.83;28.10;;;4.50;83.60;;;;;;4135081;28;20095;-87
2022/11/29 05:16:29;;;;;;;66.80;31.35;;;4.60;83.70;;;;;;4138013;28;20546;-87
2022/11/29 05:18:57;;;;;;;63.63;29.20;;;4.60;83.60;;;;;;4134269;28;20072;-87
2022/11/29 05:21:41;;;;;;;65.57;29.35;;;4.60;83.50;;;;;;4123256;28;20040;-87
2022/11/29 05:24:16;;;;;;;58.88;30.23;;;4.60;83.50;;;;;;4083877;28;20038;-87
2022/11/29 05:26:55;;;;;;;59.80;28.45;;;4.60;83.40;;;;;;4142892;28;21072;-88
2022/11/29 05:29:32;;;;;;;65.05;30.13;;;4.60;83.40;;;;;;4121371;28;20430;-87
2022/11/29 05:32:06;;;;;;;61.35;29.52;;;4.60;83.40;;;;;;4131983;28;20093;-89
2022/11/29 05:34:53;;;;;;;55.38;28.42;;;4.60;83.60;;;;;;4117412;28;20178;-88
2022/11/29 05:37:48;;;;;;;56.50;27.95;;;4.50;83.50;;;;;;4134625;28;20049;-91
2022/11/29 05:40:35;;;;;;;55.95;25.23;;;4.50;83.90;;;;;;4122361;28;20109;-87
2022/11/29 05:43:22;;;;;;;52.78;25.67;;;4.60;83.70;;;;;;4129908;28;20041;-88
2022/11/29 05:46:06;;;;;;;50.72;26.65;;;4.60;83.40;;;;;;4141610;28;20041;-88
2022/11/29 05:48:58;;;;;;;57.17;27.63;;;4.60;83.50;;;;;;4133756;28;20101;-88
2022/11/29 05:51:26;;;;;;;61.17;29.73;;;4.60;83.50;;;;;;4142595;28;20114;-88
2022/11/29 05:53:59;;;;;;;56.47;25.88;;;4.60;83.70;;;;;;4130000;28;20461;-89
2022/11/29 05:56:47;;;;;;;50.47;25.70;;;4.60;83.60;;;;;;4127311;28;20117;-88
2022/11/29 05:59:12;;;;;;;56.22;27.65;;;4.50;83.50;;;;;;4108658;28;20159;-88
2022/11/29 06:01:41;;;;;;;53.30;26.00;;;4.50;83.70;;;;;;4141510;28;20114;-88
2022/11/29 06:04:12;;;;;;;51.83;24.98;;;4.50;83.70;;;;;;4139069;28;20398;-88
2022/11/29 06:06:45;;;;;;;52.33;24.83;;;4.50;83.80;;;;;;4140727;28;20041;-89
2022/11/29 06:09:23;;;;;;;55.57;26.97;;;4.60;83.70;;;;;;4121368;28;20053;-88
2022/11/29 06:11:53;;;;;;;51.20;25.55;;;4.50;83.70;;;;;;4125565;28;20042;-88
2022/11/29 06:14:25;;;;;;;48.45;23.80;;;4.50;83.90;;;;;;4135087;28;20076;-89
2022/11/29 06:17:47;;;;;;;51.13;24.70;;;4.50;83.80;;;;;;4143419;28;20037;-88
2022/11/29 06:20:28;;;;;;;53.85;23.00;;;4.50;84.10;;;;;;4056734;29;20480;-87
2022/11/29 06:23:00;;;;;;;51.00;24.80;;;4.50;84.00;;;;;;4055908;29;20042;-87
2022/11/29 06:25:46;;;;;;;46.05;23.92;;;4.50;83.90;;;;;;4053392;29;20047;-86
2022/11/29 06:28:08;;;;;;;46.53;22.88;;;4.40;84.00;;;;;;4045813;29;20077;-87
2022/11/29 06:30:47;;;;;;;42.42;22.85;;;4.50;84.10;;;;;;4053786;29;20079;-87
2022/11/29 06:33:18;;;;;;;50.00;25.73;;;4.40;84.00;;;;;;4056790;29;20040;-87
2022/11/29 06:35:46;;;;;;;52.33;24.80;;;4.40;84.00;;;;;;4042355;29;20047;-87
2022/11/29 06:38:23;;;;;;;50.60;24.67;;;4.40;84.20;;;;;;4058593;29;20031;-88
2022/11/29 06:40:43;;;;;;;50.67;25.90;;;4.40;84.40;;;;;;4058791;29;20082;-87
2022/11/29 06:43:02;;;;;;;49.38;23.98;;;4.40;84.20;;;;;;4060041;29;20084;-87
2022/11/29 06:45:22;;;;;;;47.75;24.60;;;4.40;84.40;;;;;;4055056;29;20046;-87
2022/11/29 06:47:56;;;;;;;52.42;24.00;;;4.40;84.40;;;;;;4056473;29;20874;-87
2022/11/29 06:50:28;;;;;;;49.17;23.23;;;4.40;84.40;;;;;;4078384;28;20088;-87
2022/11/29 06:53:25;;;;;;;45.60;22.02;;;4.50;84.30;;;;;;4145794;28;20109;-87
2022/11/29 06:56:05;;;;;;;46.50;22.13;;;4.40;84.10;;;;;;4139222;28;20092;-90
2022/11/29 06:58:52;;;;;;;45.95;22.20;;;4.40;84.30;;;;;;4138455;28;20065;-87
2022/11/29 07:01:24;;;;;;;42.45;21.42;;;4.40;84.50;;;;;;4138947;28;20088;-87
2022/11/29 07:03:57;;;;;;;41.47;21.98;;;4.50;84.30;;;;;;4137888;28;20088;-87
2022/11/29 07:06:23;;;;;;;44.83;20.48;;;4.50;84.20;;;;;;4124697;28;20170;-87
2022/11/29 07:08:43;;;;;;;48.30;22.55;;;4.50;84.00;;;;;;4137246;28;20040;-87
2022/11/29 07:11:03;;;;;;;47.58;21.63;;;4.50;84.10;;;;;;4124642;28;20045;-87
2022/11/29 07:13:23;;;;;;;38.35;19.65;;;4.40;83.90;;;;;;4135482;28;20093;-87
2022/11/29 07:16:05;;;;;;;47.67;21.85;;;4.50;84.10;;;;;;4137232;28;20045;-87
2022/11/29 07:18:39;;;;;;;42.67;22.10;;;4.50;84.10;;;;;;4135788;28;20096;-88
2022/11/29 07:21:07;;;;;;;47.03;22.40;;;4.50;84.20;;;;;;4138499;28;20048;-88
2022/11/29 07:23:33;;;;;;;43.25;22.23;;;4.50;84.20;;;;;;4138064;28;20104;-87
2022/11/29 07:26:04;;;;;;;48.53;23.70;;;4.50;84.10;;;;;;4139834;28;20053;-87
2022/11/29 07:28:29;;;;;;;45.60;23.00;;;4.50;84.20;;;;;;4136521;28;20043;-87
2022/11/29 07:31:04;;;;;;;44.00;20.50;;;4.50;84.20;;;;;;4137023;28;20180;-86
2022/11/29 07:33:28;;;;;;;;;;;4.50;84.20;;;;;;4123414;28;20045;-88
2022/11/29 07:36:12;;;;;;;47.63;22.13;;;4.50;85.10;;;;;;4133233;28;19964;-87
2022/11/29 07:38:53;;;;;;;43.45;22.52;;;4.50;84.10;;;;;;4137285;28;20529;-87
2022/11/29 07:41:42;;;;;;;45.67;23.35;;;4.50;84.10;;;;;;4135550;28;20044;-87
2022/11/29 07:44:22;;;;;;;41.65;21.20;;;4.50;84.10;;;;;;4131138;28;20072;-88
2022/11/29 07:46:41;;;;;;;44.38;22.02;;;4.50;84.30;;;;;;4127546;28;20026;-87
2022/11/29 07:49:00;;;;;;;46.88;23.02;;;4.60;84.20;;;;;;4137257;28;20130;-88
2022/11/29 07:51:20;;;;;;;43.88;22.70;;;4.60;84.10;;;;;;4137199;28;20044;-88
2022/11/29 07:53:43;;;;;;;47.70;23.70;;;4.70;84.10;;;;;;4140405;28;20059;-89
2022/11/29 07:56:02;;;;;;;46.80;21.88;;;4.60;84.00;;;;;;4134201;28;20045;-87
2022/11/29 07:58:21;;;;;;;51.25;24.17;;;4.60;83.90;;;;;;4136845;28;20726;-87
2022/11/29 08:00:41;;;;;;;43.33;20.75;;;4.60;83.80;;;;;;4122505;28;20032;-87
2022/11/29 08:03:00;;;;;;;50.47;24.13;;;4.60;84.20;;;;;;4142662;28;20073;-87
2022/11/29 08:05:19;;;;;;;53.65;23.88;;;4.50;84.10;;;;;;4127406;28;20041;-87
2022/11/29 08:07:40;;;;;;;48.10;23.20;;;4.50;84.20;;;;;;4142147;28;20052;-88
2022/11/29 08:09:59;;;;;;;45.72;23.58;;;4.60;84.40;;;;;;4138216;28;20075;-87
2022/11/29 08:12:19;;;;;;;56.22;24.75;;;4.50;84.30;;;;;;4137385;28;20479;-87
2022/11/29 08:14:38;;;;;;;59.42;24.92;;;4.40;84.40;;;;;;4134358;28;20116;-88
2022/11/29 08:16:57;;;;;;;55.10;24.17;;;4.60;84.60;;;;;;4137788;28;20036;-87
2022/11/29 08:19:16;;;;;;;51.35;24.58;;;4.50;84.60;;;;;;4138807;28;20760;-88
2022/11/29 08:21:35;;;;;;;48.67;24.05;;;4.40;84.50;;;;;;4128735;28;20061;-86
2022/11/29 08:23:54;;;;;;;49.50;24.40;;;4.50;84.50;;;;;;4139462;28;20052;-86
2022/11/29 08:26:15;;;;;;;51.75;24.90;;;4.50;84.40;;;;;;4143047;28;20131;-87
2022/11/29 08:28:35;;;;;;;53.20;26.67;;;4.50;84.30;;;;;;4130677;28;20042;-87
2022/11/29 08:31:20;;;;;;;55.97;26.67;;;4.50;84.40;;;;;;4122404;28;20045;-86
2022/11/29 08:33:41;;;;;;;51.60;24.92;;;4.60;84.60;;;;;;4142737;28;20466;-88
2022/11/29 08:36:12;;;;;;;56.70;24.98;;;4.60;84.30;;;;;;4127258;28;20041;-86
2022/11/29 08:38:32;;;;;;;51.65;25.60;;;4.70;84.20;;;;;;4127685;28;20073;-88
2022/11/29 08:40:51;;;;;;;59.13;28.13;;;4.70;84.30;;;;;;4143789;28;20037;-88
2022/11/29 08:43:10;;;;;;;58.10;25.77;;;4.70;84.20;;;;;;4148542;28;20157;-87
2022/11/29 08:45:29;;;;;;;57.15;26.05;;;4.70;84.10;;;;;;4140428;28;20045;-88
2022/11/29 08:47:48;;;;;;;56.97;25.73;;;4.70;84.10;;;;;;4142457;28;20844;-87
2022/11/29 08:50:13;;;;;;;64.25;28.67;;;4.70;84.00;;;;;;4125580;28;20037;-87
2022/11/29 08:55:21;;;;;;;52.10;24.55;;;4.80;84.00;;;;;;4140803;28;20053;-87
2022/11/29 08:57:40;;;;;;;60.97;25.75;;;4.80;83.90;;;;;;4139588;28;20091;-87
2022/11/29 08:59:59;;;;;;;51.25;25.60;;;4.90;83.90;;;;;;4121096;28;20065;-87
2022/11/29 09:02:18;;;;;;;56.35;27.25;;;4.90;83.90;;;;;;4125977;28;20113;-87
2022/11/29 09:04:38;;;;;;;56.13;27.13;;;4.90;83.70;;;;;;4133105;28;20483;-88
2022/11/29 09:06:57;;;;;;;69.03;33.10;;;4.90;83.60;;;;;;4135657;28;20091;-87
2022/11/29 09:09:16;;;;;;;58.58;29.20;;;5.00;83.60;;;;;;4135564;28;20068;-89
2022/11/29 09:11:36;;;;;;;59.50;28.38;;;4.90;83.40;;;;;;4135370;28;20044;-88
2022/11/29 09:13:59;;;;;;;59.17;28.70;;;4.90;83.40;;;;;;4124167;28;21503;-88
2022/11/29 09:16:21;;;;;;;55.05;27.02;;;4.90;83.40;;;;;;4124068;28;20062;-88
2022/11/29 09:18:41;;;;;;;57.85;28.23;;;5.00;83.50;;;;;;4134972;28;20068;-88
2022/11/29 09:21:07;;;;;;;60.97;29.05;;;5.00;83.50;;;;;;4122453;28;20061;-88
2022/11/29 09:23:27;;;;;;;59.42;28.58;;;5.00;83.40;;;;;;4133875;28;20056;-89
2022/11/29 09:25:48;;;;;;;61.50;28.52;;;5.00;83.40;;;;;;4131235;28;20101;-88
2022/11/29 09:28:07;;;;;;;57.70;28.33;;;5.00;83.40;;;;;;4128880;28;20126;-89
2022/11/29 09:30:29;;;;;;;56.78;27.52;;;5.00;83.40;;;;;;4123513;28;20045;-89
2022/11/29 09:32:48;;;;;;;58.92;28.33;;;5.00;83.40;;;;;;4127776;28;20061;-89
2022/11/29 09:35:07;;;;;;;65.07;29.55;;;5.10;83.40;;;;;;4137536;28;20506;-88
2022/11/29 09:37:27;;;;;;;50.42;25.65;;;5.00;83.20;;;;;;4142093;28;20087;-89
2022/11/29 09:39:46;;;;;;;56.95;27.85;;;5.20;83.30;;;;;;4125498;28;20100;-88
2022/11/29 09:42:37;;;;;;;51.05;27.15;;;5.10;83.30;;;;;;4139156;28;20041;-88
2022/11/29 09:45:03;;;;;;;54.05;24.85;;;5.20;83.30;;;;;;4124276;28;20977;-88
2022/11/29 09:47:42;;;;;;;49.58;25.75;;;5.20;83.10;;;;;;4139586;28;20048;-88
2022/11/29 09:50:35;;;;;;;61.00;27.38;;;5.20;83.00;;;;;;4136485;28;20122;-87
2022/11/29 09:53:19;;;;;;;59.72;28.52;;;5.20;82.90;;;;;;4141470;28;20048;-88
2022/11/29 09:56:04;;;;;;;53.63;27.63;;;5.20;82.80;;;;;;4127835;28;20096;-89
2022/11/29 09:58:40;;;;;;;64.05;30.45;;;5.30;82.80;;;;;;4129340;28;20560;-87
2022/11/29 10:01:09;;;;;;;57.33;28.73;;;5.30;82.90;;;;;;4124504;28;20089;-87
2022/11/29 10:03:33;;;;;;;65.57;30.50;;;5.30;82.80;;;;;;4128283;28;21052;-88
2022/11/29 10:06:00;;;;;;;60.35;30.02;;;5.30;82.70;;;;;;4140153;28;20500;-87
2022/11/29 10:08:34;;;;;;;60.35;28.17;;;5.30;82.70;;;;;;4122808;28;20426;-88
2022/11/29 10:11:20;;;;;;;69.35;32.47;;;5.30;82.70;;;;;;4126523;28;20042;-87
2022/11/29 10:13:45;;;;;;;67.03;33.38;;;5.40;82.70;;;;;;4144378;28;20052;-87
2022/11/29 10:16:13;;;;;;;69.63;30.88;;;5.40;82.50;;;;;;4125454;28;20108;-89
2022/11/29 10:18:58;;;;;;;68.10;31.92;;;5.40;82.60;;;;;;4128019;28;20222;-89
2022/11/29 10:21:23;;;;;;;69.03;33.38;;;5.50;82.50;;;;;;4142342;28;20048;-89
2022/11/29 10:23:46;;;;;;;73.65;34.08;;;5.30;83.00;;;;;;4140982;28;20061;-88
2022/11/29 10:26:07;;;;;;;74.70;34.63;;;5.40;82.40;;;;;;4143676;28;20053;-89
2022/11/29 10:28:32;;;;;;;72.97;34.17;;;5.30;82.20;;;;;;4130165;28;20049;-90
2022/11/29 10:30:59;;;;;;;69.57;33.35;;;5.30;82.30;;;;;;4136252;28;20045;-91
2022/11/29 10:33:20;;;;;;;68.78;32.55;;;5.30;82.30;;;;;;4139490;28;20040;-88
2022/11/29 10:35:39;;;;;;;73.45;33.45;;;5.40;82.40;;;;;;4126237;28;20037;-89
2022/11/29 10:38:00;;;;;;;73.40;34.63;;;5.30;82.40;;;;;;4126328;28;20041;-89
2022/11/29 10:40:27;;;;;;;71.95;33.58;;;5.40;82.40;;;;;;4141101;28;20563;-89
2022/11/29 10:42:51;;;;;;;69.32;32.15;;;5.30;82.30;;;;;;4122464;28;20069;-89
2022/11/29 10:45:16;;;;;;;66.60;33.63;;;5.40;82.40;;;;;;4135570;28;20049;-88
2022/11/29 10:47:35;;;;;;;73.03;36.22;;;5.40;82.30;;;;;;4137717;28;20061;-89
2022/11/29 10:49:55;;;;;;;67.53;32.13;;;5.40;82.30;;;;;;4125876;28;20069;-89
2022/11/29 10:52:20;;;;;;;70.63;34.63;;;5.40;82.20;;;;;;4138220;28;20080;-89
2022/11/29 10:54:42;;;;;;;81.68;38.85;;;5.40;82.20;;;;;;4128585;28;20590;-89
2022/11/29 10:57:07;;;;;;;71.07;35.30;;;5.40;82.00;;;;;;4129743;28;20068;-88
2022/11/29 10:59:28;;;;;;;77.63;35.28;;;5.40;82.00;;;;;;4141639;28;20033;-88
2022/11/29 11:01:48;;;;;;;76.30;35.50;;;5.50;82.10;;;;;;4138595;28;20796;-89
2022/11/29 11:04:14;;;;;;;83.03;40.30;;;5.40;82.00;;;;;;4127164;28;20081;-90
2022/11/29 11:06:48;;;;;;;70.60;34.88;;;5.40;81.90;;;;;;4123646;28;20056;-88
2022/11/29 11:09:26;;;;;;;75.65;35.50;;;5.40;81.90;;;;;;4122864;28;20041;-90
2022/11/29 11:11:52;;;;;;;79.30;35.20;;;5.40;82.00;;;;;;4120947;28;20072;-89
2022/11/29 11:14:23;;;;;;;74.78;36.25;;;5.40;81.90;;;;;;4139017;28;20464;-88
2022/11/29 11:16:42;;;;;;;74.82;35.75;;;5.40;81.90;;;;;;4120773;28;20065;-88
2022/11/29 11:19:26;;;;;;;79.53;36.63;;;5.40;81.80;;;;;;4123835;28;20090;-88
2022/11/29 11:21:46;;;;;;;73.50;35.17;;;5.40;81.70;;;;;;4132572;28;20452;-89
2022/11/29 11:24:20;;;;;;;75.60;35.15;;;5.40;81.70;;;;;;4124033;28;20073;-88
2022/11/29 11:26:44;;;;;;;73.10;35.97;;;5.50;81.60;;;;;;4120910;28;20089;-89
2022/11/29 11:29:03;;;;;;;71.90;34.83;;;5.50;81.60;;;;;;4124460;28;20096;-89
2022/11/29 11:31:36;;;;;;;73.50;33.72;;;5.50;81.60;;;;;;4124462;28;20117;-89
2022/11/29 11:34:09;;;;;;;74.18;32.75;;;5.50;81.70;;;;;;4137517;28;20658;-89
2022/11/29 11:36:28;;;;;;;68.25;32.90;;;5.60;81.60;;;;;;4140284;28;20049;-89
2022/11/29 11:38:56;;;;;;;82.03;39.10;;;5.50;81.50;;;;;;4125306;28;20138;-90
2022/11/29 11:44:39;;;;;;;75.72;36.53;;;5.50;81.40;;;;;;4136585;28;20056;-89
2022/11/29 11:47:00;;;;;;;78.93;37.65;;;5.50;81.30;;;;;;4122154;28;20041;-89
2022/11/29 11:49:31;;;;;;;80.68;37.70;;;5.60;81.50;;;;;;4124492;28;20494;-89
2022/11/29 11:51:50;;;;;;;76.95;37.13;;;5.40;81.40;;;;;;4122516;28;20603;-90
2022/11/29 11:54:14;;;;;;;78.80;38.20;;;5.50;81.60;;;;;;4121929;28;20044;-90
2022/11/29 11:56:34;;;;;;;80.80;38.78;;;5.40;81.50;;;;;;4124531;28;20130;-89
2022/11/29 11:58:56;;;;;;;80.93;39.47;;;5.40;81.50;;;;;;4138210;28;20045;-90
2022/11/29 12:01:37;;;;;;;83.30;38.70;;;5.40;81.40;;;;;;4135864;28;20068;-90
2022/11/29 12:04:05;;;;;;;90.53;39.67;;;5.40;81.50;;;;;;4124665;28;20041;-91
2022/11/29 12:06:27;;;;;;;83.43;39.00;;;5.40;81.60;;;;;;4127075;28;20033;-89
2022/11/29 12:08:48;;;;;;;88.88;41.47;;;5.30;81.40;;;;;;4139194;28;20044;-89
2022/11/29 12:11:11;;;;;;;91.97;42.22;;;5.30;81.50;;;;;;4128812;28;20083;-88
2022/11/29 12:13:34;;;;;;;102.65;46.92;;;5.30;81.50;;;;;;4138128;28;20053;-89
2022/11/29 12:15:55;;;;;;;107.87;46.87;;;5.30;82.20;;;;;;4126098;28;20063;-90
2022/11/29 12:18:48;;;;;;;89.30;42.13;;;5.10;81.80;;;;;;4126687;28;20041;-89
2022/11/29 12:21:11;;;;;;;88.47;40.28;;;5.10;81.80;;;;;;4135150;28;20036;-89
2022/11/29 12:23:48;;;;;;;87.07;40.30;;;5.20;81.80;;;;;;4136703;28;20112;-89
2022/11/29 12:26:20;;;;;;;78.70;37.85;;;5.20;81.60;;;;;;4135789;28;20149;-89
2022/11/29 12:28:41;;;;;;;86.03;40.72;;;5.20;81.70;;;;;;4126819;28;20067;-88
2022/11/29 12:31:39;;;;;;;87.40;38.42;;;5.30;81.60;;;;;;4137207;28;20177;-88
2022/11/29 12:34:20;;;;;;;79.88;35.67;;;5.20;81.50;;;;;;4135507;28;20076;-89
2022/11/29 12:37:04;;;;;;;74.28;34.28;;;5.30;81.60;;;;;;4140003;28;20029;-88
2022/11/29 12:39:32;;;;;;;75.03;33.40;;;5.30;81.40;;;;;;4126628;28;20062;-88
2022/11/29 12:41:59;;;;;;;73.78;35.40;;;5.40;81.40;;;;;;4129489;28;20325;-88
2022/11/29 12:44:40;;;;;;;70.40;34.58;;;5.30;81.30;;;;;;4140644;28;20045;-89
2022/11/29 12:47:23;;;;;;;73.68;34.08;;;5.30;81.00;;;;;;4126500;28;20049;-89
2022/11/29 12:49:55;;;;;;;71.68;34.33;;;5.30;80.90;;;;;;4128134;28;20606;-89
2022/11/29 12:52:46;;;;;;;65.95;32.05;;;5.30;80.80;;;;;;4135724;28;20036;-89
2022/11/29 12:55:32;;;;;;;67.93;31.98;;;5.40;81.10;;;;;;4125766;28;20527;-89
2022/11/29 12:58:09;;;;;;;71.25;34.28;;;5.30;80.70;;;;;;4130267;28;20069;-90